createdAt,value
2023-02-19T00:00:55.138Z,10.19
2023-02-19T00:01:55.990Z,10.19
2023-02-19T00:02:56.861Z,10.19
2023-02-19T00:03:57.637Z,10.19
2023-02-19T00:04:58.508Z,10.19
2023-02-19T00:05:59.371Z,10.19
2023-02-19T00:07:00.217Z,10.19
2023-02-19T00:08:01.071Z,10.19
2023-02-19T00:09:01.921Z,10.19
2023-02-19T00:10:02.785Z,10.19
2023-02-19T00:11:04.116Z,10.19
2023-02-19T00:12:04.469Z,10.19
2023-02-19T00:13:05.365Z,10.19
2023-02-19T00:14:06.185Z,10.25
2023-02-19T00:15:07.038Z,10.25
2023-02-19T00:16:07.976Z,10.19
2023-02-19T00:17:08.778Z,10.25
2023-02-19T00:18:09.694Z,10.25
2023-02-19T00:19:10.484Z,10.25
2023-02-19T00:20:11.332Z,10.25
2023-02-19T00:21:12.795Z,10.25
2023-02-19T00:22:13.157Z,10.25
2023-02-19T00:23:14.009Z,10.25
2023-02-19T00:24:14.869Z,10.25
2023-02-19T00:25:15.718Z,10.25
2023-02-19T00:26:18.797Z,10.25
2023-02-19T00:27:17.257Z,10.25
2023-02-19T00:28:18.142Z,10.25
2023-02-19T00:29:18.977Z,10.25
2023-02-19T00:30:19.853Z,10.25
2023-02-19T00:31:20.931Z,10.25
2023-02-19T00:32:21.293Z,10.25
2023-02-19T00:33:22.124Z,10.25
2023-02-19T00:34:22.894Z,10.25
2023-02-19T00:35:23.746Z,10.25
2023-02-19T00:36:24.638Z,10.25
2023-02-19T00:37:25.484Z,10.25
2023-02-19T00:38:26.337Z,10.25
2023-02-19T00:39:27.213Z,10.25
2023-02-19T00:40:28.061Z,10.25
2023-02-19T00:41:29.118Z,10.25
2023-02-19T00:42:29.473Z,10.31
2023-02-19T00:43:30.356Z,10.31
2023-02-19T00:44:31.199Z,10.25
2023-02-19T00:45:33.070Z,10.25
2023-02-19T00:46:33.150Z,10.31
2023-02-19T00:47:33.470Z,10.25
2023-02-19T00:48:34.341Z,10.25
2023-02-19T00:49:35.123Z,10.25
2023-02-19T00:50:35.984Z,10.25
2023-02-19T00:51:37.168Z,10.25
2023-02-19T00:52:37.480Z,10.25
2023-02-19T00:53:38.354Z,10.25
2023-02-19T00:54:39.247Z,10.25
2023-02-19T00:55:40.099Z,10.25
2023-02-19T00:56:41.114Z,10.25
2023-02-19T00:57:41.465Z,10.25
2023-02-19T00:58:42.350Z,10.25
2023-02-19T00:59:43.178Z,10.31
2023-02-19T01:00:44.038Z,10.25
2023-02-19T01:01:45.085Z,10.25
2023-02-19T01:02:45.410Z,10.25
2023-02-19T01:03:46.277Z,10.25
2023-02-19T01:04:47.070Z,10.25
2023-02-19T01:05:47.904Z,10.25
2023-02-19T01:06:48.798Z,10.25
2023-02-19T01:07:49.636Z,10.25
2023-02-19T01:08:50.514Z,10.25
2023-02-19T01:09:51.358Z,10.25
2023-02-19T01:10:52.214Z,10.25
2023-02-19T01:11:53.109Z,10.25
2023-02-19T01:12:53.964Z,10.25
2023-02-19T01:13:54.836Z,10.25
2023-02-19T01:14:55.672Z,10.25
2023-02-19T01:15:56.536Z,10.25
2023-02-19T01:16:57.606Z,10.25
2023-02-19T01:17:57.979Z,10.25
2023-02-19T01:18:58.851Z,10.31
2023-02-19T01:19:59.629Z,10.25
2023-02-19T01:21:00.483Z,10.25
2023-02-19T01:22:01.616Z,10.25
2023-02-19T01:23:01.979Z,10.31
2023-02-19T01:24:02.853Z,10.25
2023-02-19T01:25:03.705Z,10.25
2023-02-19T01:26:04.562Z,10.25
2023-02-19T01:27:05.611Z,10.25
2023-02-19T01:28:05.960Z,10.25
2023-02-19T01:29:06.841Z,10.25
2023-02-19T01:30:07.699Z,10.25
2023-02-19T01:31:08.951Z,10.25
2023-02-19T01:32:09.950Z,10.31
2023-02-19T01:33:10.327Z,10.25
2023-02-19T01:34:11.214Z,10.25
2023-02-19T01:35:11.991Z,10.31
2023-02-19T01:36:12.848Z,10.25
2023-02-19T01:37:14.110Z,10.25
2023-02-19T01:38:14.470Z,10.31
2023-02-19T01:39:15.332Z,10.25
2023-02-19T01:40:16.181Z,10.31
2023-02-19T01:41:17.046Z,10.31
2023-02-19T01:42:18.106Z,10.31
2023-02-19T01:43:18.479Z,10.31
2023-02-19T01:44:19.341Z,10.31
2023-02-19T01:45:20.185Z,10.31
2023-02-19T01:46:21.146Z,10.31
2023-02-19T01:47:22.122Z,10.31
2023-02-19T01:48:22.474Z,10.31
2023-02-19T01:49:23.349Z,10.31
2023-02-19T01:50:24.135Z,10.31
2023-02-19T01:51:24.982Z,10.31
2023-02-19T01:52:26.105Z,10.25
2023-02-19T01:53:26.463Z,10.31
2023-02-19T01:54:27.311Z,10.25
2023-02-19T01:55:28.163Z,10.25
2023-02-19T01:56:29.019Z,10.25
2023-02-19T01:57:29.876Z,10.25
2023-02-19T01:58:30.751Z,10.25
2023-02-19T01:59:31.681Z,10.25
2023-02-19T02:00:32.535Z,10.25
2023-02-19T02:01:33.391Z,10.25
2023-02-19T02:02:34.605Z,10.25
2023-02-19T02:03:34.962Z,10.25
2023-02-19T02:04:35.854Z,10.31
2023-02-19T02:05:36.629Z,10.25
2023-02-19T02:06:37.484Z,10.25
2023-02-19T02:07:38.614Z,10.25
2023-02-19T02:08:38.968Z,10.25
2023-02-19T02:09:39.852Z,10.25
2023-02-19T02:10:40.705Z,10.25
2023-02-19T02:11:41.546Z,10.25
2023-02-19T02:12:42.411Z,10.25
2023-02-19T02:13:43.272Z,10.25
2023-02-19T02:14:44.146Z,10.25
2023-02-19T02:15:44.986Z,10.25
2023-02-19T02:16:45.830Z,10.25
2023-02-19T02:17:47.106Z,10.25
2023-02-19T02:18:47.464Z,10.25
2023-02-19T02:19:48.330Z,10.25
2023-02-19T02:20:49.107Z,10.25
2023-02-19T02:21:49.960Z,10.25
2023-02-19T02:22:50.838Z,10.25
2023-02-19T02:23:51.683Z,10.25
2023-02-19T02:24:52.533Z,10.19
2023-02-19T02:25:53.395Z,10.25
2023-02-19T02:26:54.253Z,10.25
2023-02-19T02:27:55.606Z,10.25
2023-02-19T02:28:55.964Z,10.25
2023-02-19T02:29:56.837Z,10.19
2023-02-19T02:30:57.802Z,10.19
2023-02-19T02:31:58.763Z,10.19
2023-02-19T02:32:59.620Z,10.19
2023-02-19T02:33:59.994Z,10.19
2023-02-19T02:35:00.887Z,10.19
2023-02-19T02:36:01.786Z,10.19
2023-02-19T02:37:02.637Z,10.19
2023-02-19T02:38:03.500Z,10.19
2023-02-19T02:39:04.360Z,10.12
2023-02-19T02:40:05.203Z,10.12
2023-02-19T02:41:06.055Z,10.12
2023-02-19T02:42:06.907Z,10.12
2023-02-19T02:43:08.106Z,10.12
2023-02-19T02:44:08.457Z,10.12
2023-02-19T02:45:09.311Z,10.12
2023-02-19T02:46:10.162Z,10.12
2023-02-19T02:47:11.020Z,10.12
2023-02-19T02:48:11.887Z,10.12
2023-02-19T02:49:12.736Z,10.12
2023-02-19T02:50:13.608Z,10.06
2023-02-19T02:51:14.384Z,10.06
2023-02-19T02:52:15.253Z,10.06
2023-02-19T02:53:16.113Z,10.06
2023-02-19T02:54:16.992Z,10.06
2023-02-19T02:55:17.852Z,10.06
2023-02-19T02:56:18.711Z,10.06
2023-02-19T02:57:19.576Z,10.06
2023-02-19T02:58:20.428Z,10.06
2023-02-19T02:59:21.280Z,10.06
2023-02-19T03:00:22.134Z,10.00
2023-02-19T03:01:23.137Z,10.06
2023-02-19T03:02:23.521Z,10.00
2023-02-19T03:03:24.367Z,10.06
2023-02-19T03:04:25.209Z,10.00
2023-02-19T03:05:26.078Z,10.00
2023-02-19T03:06:26.850Z,10.00
2023-02-19T03:07:27.703Z,10.00
2023-02-19T03:08:28.575Z,10.00
2023-02-19T03:09:29.421Z,10.00
2023-02-19T03:10:30.289Z,10.00
2023-02-19T03:11:31.153Z,10.00
2023-02-19T03:12:32.013Z,10.00
2023-02-19T03:13:33.103Z,10.00
2023-02-19T03:14:33.463Z,10.00
2023-02-19T03:15:34.317Z,10.00
2023-02-19T03:16:35.217Z,10.00
2023-02-19T03:17:36.031Z,10.00
2023-02-19T03:18:37.107Z,10.00
2023-02-19T03:19:37.472Z,10.00
2023-02-19T03:20:38.345Z,10.00
2023-02-19T03:21:39.116Z,10.00
2023-02-19T03:22:39.973Z,10.00
2023-02-19T03:23:41.100Z,9.94
2023-02-19T03:24:41.459Z,9.94
2023-02-19T03:25:42.308Z,9.94
2023-02-19T03:26:43.158Z,9.94
2023-02-19T03:27:44.015Z,9.94
2023-02-19T03:28:45.099Z,9.94
2023-02-19T03:29:45.461Z,9.94
2023-02-19T03:30:46.318Z,9.94
2023-02-19T03:31:47.310Z,9.94
2023-02-19T03:32:48.134Z,10.00
2023-02-19T03:33:49.007Z,10.00
2023-02-19T03:34:49.872Z,10.00
2023-02-19T03:35:50.731Z,9.94
2023-02-19T03:36:51.525Z,9.94
2023-02-19T03:37:52.369Z,9.94
2023-02-19T03:38:53.598Z,10.00
2023-02-19T03:39:53.959Z,9.94
2023-02-19T03:40:54.808Z,9.94
2023-02-19T03:41:55.714Z,9.94
2023-02-19T03:42:56.549Z,9.94
2023-02-19T03:43:57.620Z,9.94
2023-02-19T03:44:57.959Z,9.94
2023-02-19T03:45:58.877Z,9.94
2023-02-19T03:46:59.674Z,9.94
2023-02-19T03:48:00.540Z,9.94
2023-02-19T03:49:01.396Z,9.94
2023-02-19T03:50:02.262Z,9.88
2023-02-19T03:51:03.140Z,9.88
2023-02-19T03:52:03.934Z,9.94
2023-02-19T03:53:04.792Z,9.94
2023-02-19T03:54:06.101Z,9.94
2023-02-19T03:55:06.458Z,9.94
2023-02-19T03:56:07.315Z,9.94
2023-02-19T03:57:08.203Z,9.94
2023-02-19T03:58:09.031Z,9.94
2023-02-19T03:59:10.100Z,9.94
2023-02-19T04:00:10.458Z,9.94
2023-02-19T04:01:11.828Z,9.94
2023-02-19T04:02:12.278Z,9.94
2023-02-19T04:03:13.095Z,9.94
2023-02-19T04:04:13.953Z,9.94
2023-02-19T04:05:14.808Z,9.94
2023-02-19T04:06:15.682Z,9.94
2023-02-19T04:07:16.468Z,9.88
2023-02-19T04:08:17.323Z,9.94
2023-02-19T04:09:18.601Z,9.88
2023-02-19T04:10:18.971Z,9.88
2023-02-19T04:11:19.816Z,9.94
2023-02-19T04:12:20.674Z,9.88
2023-02-19T04:13:21.564Z,9.88
2023-02-19T04:14:22.601Z,9.88
2023-02-19T04:15:22.959Z,9.88
2023-02-19T04:16:23.997Z,9.88
2023-02-19T04:17:24.809Z,9.88
2023-02-19T04:18:25.686Z,9.81
2023-02-19T04:19:26.600Z,9.88
2023-02-19T04:20:27.456Z,9.81
2023-02-19T04:21:28.329Z,9.81
2023-02-19T04:22:29.105Z,9.81
2023-02-19T04:23:29.964Z,9.88
2023-02-19T04:24:30.821Z,9.81
2023-02-19T04:25:31.671Z,9.88
2023-02-19T04:26:32.522Z,9.81
2023-02-19T04:27:33.373Z,9.88
2023-02-19T04:28:34.224Z,9.88
2023-02-19T04:29:35.353Z,9.81
2023-02-19T04:30:35.679Z,9.81
2023-02-19T04:31:36.591Z,9.81
2023-02-19T04:32:37.413Z,9.81
2023-02-19T04:33:38.271Z,9.81
2023-02-19T04:34:39.609Z,9.88
2023-02-19T04:35:39.968Z,9.81
2023-02-19T04:36:40.838Z,9.81
2023-02-19T04:37:41.616Z,9.88
2023-02-19T04:38:42.470Z,9.81
2023-02-19T04:39:43.603Z,9.88
2023-02-19T04:40:43.957Z,9.81
2023-02-19T04:41:44.827Z,9.81
2023-02-19T04:42:45.684Z,9.81
2023-02-19T04:43:46.530Z,9.88
2023-02-19T04:44:47.393Z,9.81
2023-02-19T04:45:48.244Z,9.88
2023-02-19T04:46:49.103Z,9.81
2023-02-19T04:47:49.954Z,9.81
2023-02-19T04:48:50.812Z,9.88
2023-02-19T04:49:52.093Z,9.88
2023-02-19T04:50:52.447Z,9.81
2023-02-19T04:51:53.330Z,9.81
2023-02-19T04:52:54.169Z,9.81
2023-02-19T04:53:55.021Z,9.81
2023-02-19T04:54:56.093Z,9.81
2023-02-19T04:55:56.443Z,9.81
2023-02-19T04:56:57.301Z,9.81
2023-02-19T04:57:58.165Z,9.81
2023-02-19T04:58:59.009Z,9.81
2023-02-19T05:00:00.124Z,9.81
2023-02-19T05:01:00.459Z,9.81
2023-02-19T05:02:01.336Z,9.81
2023-02-19T05:03:02.187Z,9.81
2023-02-19T05:04:03.079Z,9.81
2023-02-19T05:05:04.089Z,9.81
2023-02-19T05:06:04.443Z,9.81
2023-02-19T05:07:05.316Z,9.81
2023-02-19T05:08:06.104Z,9.75
2023-02-19T05:09:06.968Z,9.81
2023-02-19T05:10:08.091Z,9.81
2023-02-19T05:11:08.799Z,9.81
2023-02-19T05:12:09.324Z,9.75
2023-02-19T05:13:10.206Z,9.75
2023-02-19T05:14:11.029Z,9.75
2023-02-19T05:15:12.089Z,9.81
2023-02-19T05:16:12.508Z,9.75
2023-02-19T05:17:13.316Z,9.81
2023-02-19T05:18:14.179Z,9.75
2023-02-19T05:19:15.018Z,9.75
2023-02-19T05:20:16.093Z,9.75
2023-02-19T05:21:16.458Z,9.75
2023-02-19T05:22:17.316Z,9.75
2023-02-19T05:23:18.099Z,9.75
2023-02-19T05:24:18.982Z,9.75
2023-02-19T05:25:20.090Z,9.75
2023-02-19T05:26:20.445Z,9.75
2023-02-19T05:27:21.304Z,9.75
2023-02-19T05:28:22.158Z,9.75
2023-02-19T05:29:23.039Z,9.75
2023-02-19T05:30:23.913Z,9.75
2023-02-19T05:31:24.879Z,9.75
2023-02-19T05:32:25.690Z,9.69
2023-02-19T05:33:26.568Z,9.69
2023-02-19T05:34:27.418Z,9.75
2023-02-19T05:35:28.301Z,9.75
2023-02-19T05:36:29.147Z,9.75
2023-02-19T05:37:30.031Z,9.75
2023-02-19T05:38:30.841Z,9.75
2023-02-19T05:39:31.696Z,9.69
2023-02-19T05:40:32.559Z,9.75
2023-02-19T05:41:33.425Z,9.69
2023-02-19T05:42:34.265Z,9.69
2023-02-19T05:43:35.124Z,9.69
2023-02-19T05:44:35.977Z,9.75
2023-02-19T05:45:36.842Z,9.69
2023-02-19T05:46:37.712Z,9.69
2023-02-19T05:47:38.542Z,9.69
2023-02-19T05:48:39.407Z,9.69
2023-02-19T05:49:40.264Z,9.69
2023-02-19T05:50:41.594Z,9.69
2023-02-19T05:51:41.951Z,9.69
2023-02-19T05:52:42.823Z,9.69
2023-02-19T05:53:43.658Z,9.69
2023-02-19T05:54:44.544Z,9.69
2023-02-19T05:55:45.586Z,9.62
2023-02-19T05:56:45.943Z,9.69
2023-02-19T05:57:46.804Z,9.69
2023-02-19T05:58:47.666Z,9.62
2023-02-19T05:59:48.515Z,9.62
2023-02-19T06:00:49.585Z,9.69
2023-02-19T06:01:49.976Z,9.69
2023-02-19T06:02:50.869Z,9.69
2023-02-19T06:03:51.739Z,9.62
2023-02-19T06:04:52.621Z,9.69
2023-02-19T06:05:53.585Z,9.69
2023-02-19T06:06:54.441Z,9.69
2023-02-19T06:07:55.313Z,9.69
2023-02-19T06:08:56.127Z,9.69
2023-02-19T06:09:56.957Z,9.69
2023-02-19T06:10:58.096Z,9.69
2023-02-19T06:11:58.440Z,9.69
2023-02-19T06:12:59.315Z,9.69
2023-02-19T06:14:00.198Z,9.62
2023-02-19T06:15:01.016Z,9.62
2023-02-19T06:16:01.933Z,9.62
2023-02-19T06:17:02.770Z,9.62
2023-02-19T06:18:03.590Z,9.69
2023-02-19T06:19:04.430Z,9.69
2023-02-19T06:20:05.286Z,9.62
2023-02-19T06:21:06.154Z,9.62
2023-02-19T06:22:07.013Z,9.62
2023-02-19T06:23:07.876Z,9.69
2023-02-19T06:24:08.669Z,9.62
2023-02-19T06:25:09.526Z,9.69
2023-02-19T06:26:10.597Z,9.62
2023-02-19T06:27:10.941Z,9.62
2023-02-19T06:28:11.799Z,9.62
2023-02-19T06:29:12.648Z,9.62
2023-02-19T06:30:13.524Z,9.62
2023-02-19T06:31:15.020Z,9.62
2023-02-19T06:32:15.069Z,9.62
2023-02-19T06:33:15.436Z,9.62
2023-02-19T06:34:16.292Z,9.62
2023-02-19T06:35:17.147Z,9.62
2023-02-19T06:36:18.112Z,9.62
2023-02-19T06:37:18.975Z,9.56
2023-02-19T06:38:19.852Z,9.62
2023-02-19T06:39:20.654Z,9.62
2023-02-19T06:40:21.521Z,9.62
2023-02-19T06:41:22.586Z,9.62
2023-02-19T06:42:22.939Z,9.62
2023-02-19T06:43:23.796Z,9.62
2023-02-19T06:44:24.648Z,9.62
2023-02-19T06:45:25.499Z,9.62
2023-02-19T06:46:26.471Z,9.62
2023-02-19T06:47:27.285Z,9.62
2023-02-19T06:48:28.149Z,9.62
2023-02-19T06:49:28.998Z,9.62
2023-02-19T06:50:29.981Z,9.62
2023-02-19T06:51:31.091Z,9.62
2023-02-19T06:52:31.442Z,9.62
2023-02-19T06:53:32.314Z,9.62
2023-02-19T06:54:33.086Z,9.62
2023-02-19T06:55:33.938Z,9.62
2023-02-19T06:56:35.091Z,9.62
2023-02-19T06:57:35.473Z,9.62
2023-02-19T06:58:36.319Z,9.62
2023-02-19T06:59:37.174Z,9.62
2023-02-19T07:00:38.098Z,9.62
2023-02-19T07:01:38.918Z,9.62
2023-02-19T07:02:39.768Z,9.62
2023-02-19T07:03:40.621Z,9.62
2023-02-19T07:04:41.485Z,9.62
2023-02-19T07:05:42.339Z,9.62
2023-02-19T07:06:43.212Z,9.56
2023-02-19T07:07:44.058Z,9.62
2023-02-19T07:08:44.930Z,9.62
2023-02-19T07:09:45.731Z,9.62
2023-02-19T07:10:46.606Z,9.62
2023-02-19T07:11:47.581Z,9.62
2023-02-19T07:12:48.436Z,9.62
2023-02-19T07:13:49.292Z,9.62
2023-02-19T07:14:50.162Z,9.62
2023-02-19T07:15:52.207Z,9.62
2023-02-19T07:16:52.082Z,9.69
2023-02-19T07:17:52.440Z,9.62
2023-02-19T07:18:53.323Z,9.69
2023-02-19T07:19:54.187Z,9.62
2023-02-19T07:20:55.045Z,9.62
2023-02-19T07:21:56.580Z,9.62
2023-02-19T07:22:56.445Z,9.62
2023-02-19T07:23:57.309Z,9.62
2023-02-19T07:24:58.088Z,9.62
2023-02-19T07:25:58.950Z,9.62
2023-02-19T07:27:00.096Z,9.62
2023-02-19T07:28:00.442Z,9.62
2023-02-19T07:29:01.297Z,9.62
2023-02-19T07:30:02.438Z,9.62
2023-02-19T07:31:02.844Z,9.62
2023-02-19T07:32:04.132Z,9.62
2023-02-19T07:33:04.432Z,9.62
2023-02-19T07:34:05.292Z,9.62
2023-02-19T07:35:06.148Z,9.62
2023-02-19T07:36:06.991Z,9.69
2023-02-19T07:37:07.874Z,9.62
2023-02-19T07:38:08.729Z,9.62
2023-02-19T07:39:10.252Z,9.62
2023-02-19T07:40:10.076Z,9.62
2023-02-19T07:41:11.186Z,9.62
2023-02-19T07:42:12.087Z,9.62
2023-02-19T07:43:12.435Z,9.62
2023-02-19T07:44:13.288Z,9.62
2023-02-19T07:45:14.142Z,9.62
2023-02-19T07:46:15.009Z,9.62
2023-02-19T07:47:16.091Z,9.62
2023-02-19T07:48:16.480Z,9.56
2023-02-19T07:49:17.327Z,9.62
2023-02-19T07:50:18.173Z,9.56
2023-02-19T07:51:19.119Z,9.62
2023-02-19T07:52:19.954Z,9.56
2023-02-19T07:53:20.813Z,9.62
2023-02-19T07:54:21.686Z,9.62
2023-02-19T07:55:22.537Z,9.62
2023-02-19T07:56:23.388Z,9.62
2023-02-19T07:57:24.581Z,9.62
2023-02-19T07:58:24.953Z,9.62
2023-02-19T07:59:25.812Z,9.62
2023-02-19T08:00:26.815Z,9.62
2023-02-19T08:01:27.647Z,9.62
2023-02-19T08:02:28.482Z,9.62
2023-02-19T08:03:29.421Z,9.62
2023-02-19T08:04:30.199Z,9.62
2023-02-19T08:05:31.054Z,9.69
2023-02-19T08:06:31.909Z,9.62
2023-02-19T08:07:33.090Z,9.62
2023-02-19T08:08:33.453Z,9.62
2023-02-19T08:09:34.321Z,9.62
2023-02-19T08:10:37.068Z,9.62
2023-02-19T08:11:35.918Z,9.62
2023-02-19T08:12:36.803Z,9.62
2023-02-19T08:13:39.618Z,9.62
2023-02-19T08:14:39.550Z,9.62
2023-02-19T08:15:40.496Z,9.62
2023-02-19T08:16:43.282Z,9.62
2023-02-19T08:17:42.066Z,9.62
2023-02-19T08:18:41.416Z,9.62
2023-02-19T08:19:42.269Z,9.62
2023-02-19T08:20:43.140Z,9.62
2023-02-19T08:21:43.972Z,9.62
2023-02-19T08:22:44.833Z,9.62
2023-02-19T08:23:45.690Z,9.62
2023-02-19T08:24:46.558Z,9.62
2023-02-19T08:25:47.341Z,9.62
2023-02-19T08:26:48.195Z,9.62
2023-02-19T08:27:49.065Z,9.62
2023-02-19T08:28:49.933Z,9.62
2023-02-19T08:29:50.780Z,9.62
2023-02-19T08:30:51.796Z,9.62
2023-02-19T08:31:52.199Z,9.62
2023-02-19T08:32:53.083Z,9.62
2023-02-19T08:33:53.946Z,9.62
2023-02-19T08:34:54.799Z,9.62
2023-02-19T08:35:55.658Z,9.62
2023-02-19T08:36:56.516Z,9.69
2023-02-19T08:37:57.598Z,9.69
2023-02-19T08:38:57.952Z,9.69
2023-02-19T08:39:58.823Z,9.69
2023-02-19T08:40:59.617Z,9.69
2023-02-19T08:42:00.460Z,9.69
2023-02-19T08:43:01.575Z,9.69
2023-02-19T08:44:01.930Z,9.69
2023-02-19T08:45:02.783Z,9.75
2023-02-19T08:46:03.725Z,9.75
2023-02-19T08:47:04.548Z,9.75
2023-02-19T08:48:05.576Z,9.75
2023-02-19T08:49:05.924Z,9.69
2023-02-19T08:50:06.784Z,9.75
2023-02-19T08:51:07.637Z,9.75
2023-02-19T08:52:08.487Z,9.81
2023-02-19T08:53:09.594Z,9.88
2023-02-19T08:54:09.951Z,9.88
2023-02-19T08:55:10.828Z,9.88
2023-02-19T08:56:11.366Z,9.88
2023-02-19T08:57:12.198Z,9.88
2023-02-19T08:58:13.058Z,9.88
2023-02-19T08:59:13.912Z,9.88
2023-02-19T09:00:14.768Z,9.88
2023-02-19T09:01:15.945Z,9.88
2023-02-19T09:02:16.409Z,9.88
2023-02-19T09:03:17.570Z,9.88
2023-02-19T09:04:17.961Z,9.94
2023-02-19T09:05:18.793Z,10.06
2023-02-19T09:06:19.646Z,10.19
2023-02-19T09:07:20.499Z,10.25
2023-02-19T09:08:21.590Z,10.25
2023-02-19T09:09:21.949Z,10.25
2023-02-19T09:10:22.835Z,10.25
2023-02-19T09:11:23.613Z,10.19
2023-02-19T09:12:24.489Z,10.19
2023-02-19T09:13:25.566Z,10.19
2023-02-19T09:14:25.919Z,10.19
2023-02-19T09:15:26.823Z,10.12
2023-02-19T09:16:27.636Z,10.12
2023-02-19T09:17:28.483Z,10.12
2023-02-19T09:18:29.571Z,10.06
2023-02-19T09:19:29.925Z,10.06
2023-02-19T09:20:30.778Z,10.00
2023-02-19T09:21:31.647Z,10.00
2023-02-19T09:22:32.536Z,10.00
2023-02-19T09:23:33.592Z,10.00
2023-02-19T09:24:33.958Z,10.00
2023-02-19T09:25:34.856Z,10.00
2023-02-19T09:26:37.731Z,10.00
2023-02-19T09:27:36.390Z,9.94
2023-02-19T09:28:37.569Z,9.94
2023-02-19T09:29:37.925Z,9.94
2023-02-19T09:30:38.794Z,9.94
2023-02-19T09:31:39.779Z,9.94
2023-02-19T09:32:40.609Z,9.94
2023-02-19T09:33:41.571Z,9.94
2023-02-19T09:34:42.428Z,9.94
2023-02-19T09:35:43.305Z,9.94
2023-02-19T09:36:44.163Z,9.94
2023-02-19T09:37:45.021Z,9.94
2023-02-19T09:38:45.908Z,9.94
2023-02-19T09:39:46.767Z,9.94
2023-02-19T09:40:47.636Z,9.94
2023-02-19T09:41:48.414Z,10.00
2023-02-19T09:42:49.269Z,9.94
2023-02-19T09:43:50.570Z,10.00
2023-02-19T09:44:50.925Z,10.00
2023-02-19T09:45:51.856Z,10.00
2023-02-19T09:46:52.656Z,10.00
2023-02-19T09:47:53.508Z,10.00
2023-02-19T09:48:54.569Z,10.00
2023-02-19T09:49:54.927Z,10.00
2023-02-19T09:50:55.804Z,9.94
2023-02-19T09:51:56.672Z,10.00
2023-02-19T09:52:57.538Z,9.94
2023-02-19T09:53:58.573Z,9.94
2023-02-19T09:54:58.925Z,10.00
2023-02-19T09:55:59.793Z,10.00
2023-02-19T09:57:00.605Z,10.00
2023-02-19T09:58:01.566Z,10.00
2023-02-19T09:59:02.565Z,10.00
2023-02-19T10:00:02.923Z,10.00
2023-02-19T10:01:03.780Z,10.00
2023-02-19T10:02:04.632Z,10.00
2023-02-19T10:03:05.497Z,10.00
2023-02-19T10:04:06.565Z,10.06
2023-02-19T10:05:06.964Z,10.06
2023-02-19T10:06:10.910Z,10.06
2023-02-19T10:07:08.591Z,10.06
2023-02-19T10:08:09.448Z,10.06
2023-02-19T10:09:10.333Z,10.06
2023-02-19T10:10:11.293Z,10.12
2023-02-19T10:11:12.579Z,10.06
2023-02-19T10:12:12.986Z,10.12
2023-02-19T10:13:13.869Z,10.12
2023-02-19T10:14:15.063Z,10.12
2023-02-19T10:15:15.417Z,10.12
2023-02-19T10:16:16.369Z,10.06
2023-02-19T10:17:17.215Z,10.06
2023-02-19T10:18:18.072Z,10.06
2023-02-19T10:19:19.067Z,10.06
2023-02-19T10:20:19.496Z,10.00
2023-02-19T10:21:20.319Z,10.00
2023-02-19T10:22:21.212Z,10.00
2023-02-19T10:23:22.055Z,10.00
2023-02-19T10:24:22.929Z,10.00
2023-02-19T10:25:23.774Z,9.94
2023-02-19T10:26:24.647Z,9.94
2023-02-19T10:27:25.419Z,10.00
2023-02-19T10:28:26.274Z,10.00
2023-02-19T10:29:27.564Z,10.00
2023-02-19T10:30:27.975Z,9.94
2023-02-19T10:31:28.904Z,10.00
2023-02-19T10:32:29.704Z,10.00
2023-02-19T10:33:30.560Z,10.00
2023-02-19T10:34:31.566Z,10.06
2023-02-19T10:35:31.916Z,10.19
2023-02-19T10:36:32.796Z,10.31
2023-02-19T10:37:33.627Z,10.38
2023-02-19T10:38:34.485Z,10.56
2023-02-19T10:39:35.599Z,10.75
2023-02-19T10:40:35.953Z,10.81
2023-02-19T10:41:36.836Z,10.88
2023-02-19T10:42:37.639Z,10.94
2023-02-19T10:43:38.493Z,10.94
2023-02-19T10:44:39.351Z,10.94
2023-02-19T10:45:40.201Z,10.94
2023-02-19T10:46:41.099Z,10.94
2023-02-19T10:47:41.927Z,10.94
2023-02-19T10:48:42.771Z,10.94
2023-02-19T10:49:43.632Z,10.88
2023-02-19T10:50:44.501Z,10.81
2023-02-19T10:51:45.354Z,10.69
2023-02-19T10:52:46.235Z,10.69
2023-02-19T10:53:47.088Z,10.62
2023-02-19T10:54:47.945Z,10.56
2023-02-19T10:55:48.797Z,10.56
2023-02-19T10:56:49.666Z,10.50
2023-02-19T10:57:50.460Z,10.56
2023-02-19T10:58:51.305Z,10.50
2023-02-19T10:59:52.564Z,10.50
2023-02-19T11:00:52.916Z,10.44
2023-02-19T11:01:53.829Z,10.44
2023-02-19T11:02:54.647Z,10.44
2023-02-19T11:03:55.498Z,10.44
2023-02-19T11:04:56.561Z,10.44
2023-02-19T11:05:56.916Z,10.44
2023-02-19T11:06:57.805Z,10.44
2023-02-19T11:07:58.642Z,10.44
2023-02-19T11:08:59.506Z,10.38
2023-02-19T11:10:00.602Z,10.38
2023-02-19T11:11:00.950Z,10.44
2023-02-19T11:12:01.833Z,10.44
2023-02-19T11:13:02.653Z,10.44
2023-02-19T11:14:03.498Z,10.44
2023-02-19T11:15:04.569Z,10.44
2023-02-19T11:16:04.954Z,10.44
2023-02-19T11:17:05.843Z,10.50
2023-02-19T11:18:06.627Z,10.44
2023-02-19T11:19:07.481Z,10.44
2023-02-19T11:20:08.562Z,10.44
2023-02-19T11:21:09.185Z,10.50
2023-02-19T11:22:09.711Z,10.56
2023-02-19T11:23:10.560Z,10.56
2023-02-19T11:24:11.414Z,10.62
2023-02-19T11:25:12.562Z,10.62
2023-02-19T11:26:12.920Z,10.62
2023-02-19T11:27:13.802Z,10.69
2023-02-19T11:28:14.578Z,10.75
2023-02-19T11:29:15.430Z,10.75
2023-02-19T11:30:16.383Z,10.75
2023-02-19T11:31:17.335Z,10.81
2023-02-19T11:32:18.305Z,10.81
2023-02-19T11:33:18.653Z,10.81
2023-02-19T11:34:19.504Z,10.81
2023-02-19T11:35:20.372Z,10.81
2023-02-19T11:36:21.220Z,10.81
2023-02-19T11:37:22.073Z,10.81
2023-02-19T11:38:22.942Z,10.75
2023-02-19T11:39:23.793Z,10.75
2023-02-19T11:40:24.692Z,10.75
2023-02-19T11:41:25.553Z,10.75
2023-02-19T11:42:29.182Z,10.75
2023-02-19T11:43:27.244Z,10.81
2023-02-19T11:44:28.082Z,10.94
2023-02-19T11:45:28.941Z,11.00
2023-02-19T11:46:29.821Z,11.00
2023-02-19T11:47:30.661Z,11.00
2023-02-19T11:48:31.520Z,10.94
2023-02-19T11:49:32.371Z,10.94
2023-02-19T11:50:33.568Z,10.88
2023-02-19T11:51:33.925Z,10.88
2023-02-19T11:52:34.774Z,10.88
2023-02-19T11:53:35.628Z,10.88
2023-02-19T11:54:36.487Z,10.88
2023-02-19T11:55:37.566Z,10.94
2023-02-19T11:56:37.920Z,10.94
2023-02-19T11:57:38.788Z,10.94
2023-02-19T11:58:39.563Z,10.88
2023-02-19T11:59:40.420Z,10.88
2023-02-19T12:00:41.290Z,10.88
2023-02-19T12:01:42.166Z,10.88
2023-02-19T12:02:42.984Z,10.88
2023-02-19T12:03:43.839Z,10.88
2023-02-19T12:04:44.769Z,10.94
2023-02-19T12:05:46.065Z,10.94
2023-02-19T12:06:46.414Z,10.94
2023-02-19T12:07:47.273Z,10.94
2023-02-19T12:08:48.129Z,10.94
2023-02-19T12:09:48.980Z,10.88
2023-02-19T12:10:50.078Z,10.88
2023-02-19T12:11:50.444Z,10.88
2023-02-19T12:12:51.340Z,10.88
2023-02-19T12:13:52.188Z,10.88
2023-02-19T12:14:53.041Z,10.88
2023-02-19T12:16:54.853Z,10.81
2023-02-19T12:17:55.706Z,10.81
2023-02-19T12:18:56.582Z,10.75
2023-02-19T12:19:57.426Z,10.69
2023-02-19T12:20:58.580Z,10.69
2023-02-19T12:21:58.938Z,10.69
2023-02-19T12:22:59.801Z,10.69
2023-02-19T12:24:00.655Z,10.69
2023-02-19T12:25:01.514Z,10.69
2023-02-19T12:26:02.554Z,10.69
2023-02-19T12:27:02.910Z,10.69
2023-02-19T12:28:03.785Z,10.69
2023-02-19T12:29:04.574Z,10.62
2023-02-19T12:30:05.487Z,10.62
2023-02-19T12:31:06.626Z,10.56
2023-02-19T12:32:07.014Z,10.56
2023-02-19T12:33:07.820Z,10.56
2023-02-19T12:34:08.670Z,10.56
2023-02-19T12:35:09.528Z,10.56
2023-02-19T12:36:10.912Z,10.56
2023-02-19T12:37:11.318Z,10.56
2023-02-19T12:38:12.170Z,10.56
2023-02-19T12:39:13.024Z,10.50
2023-02-19T12:40:13.871Z,10.44
2023-02-19T12:41:15.068Z,10.44
2023-02-19T12:42:15.436Z,10.44
2023-02-19T12:43:16.314Z,10.50
2023-02-19T12:44:17.119Z,10.50
2023-02-19T12:45:17.970Z,10.44
2023-02-19T12:46:19.089Z,10.44
2023-02-19T12:47:19.414Z,10.38
2023-02-19T12:48:20.272Z,10.38
2023-02-19T12:49:21.157Z,10.38
2023-02-19T12:50:22.043Z,10.38
2023-02-19T12:51:23.055Z,10.44
2023-02-19T12:52:23.421Z,10.50
2023-02-19T12:53:24.290Z,10.50
2023-02-19T12:54:25.139Z,10.50
2023-02-19T12:55:25.990Z,10.50
2023-02-19T12:56:26.858Z,10.50
2023-02-19T12:57:27.712Z,10.50
2023-02-19T12:58:28.577Z,10.50
2023-02-19T12:59:29.354Z,10.50
2023-02-19T13:00:30.204Z,10.50
2023-02-19T13:01:31.213Z,10.50
2023-02-19T13:02:31.596Z,10.50
2023-02-19T13:03:32.410Z,10.44
2023-02-19T13:04:33.249Z,10.50
2023-02-19T13:05:34.103Z,10.44
2023-02-19T13:06:34.965Z,10.44
2023-02-19T13:07:35.813Z,10.44
2023-02-19T13:08:39.567Z,10.44
2023-02-19T13:09:38.412Z,10.44
2023-02-19T13:10:38.303Z,10.44
2023-02-19T13:11:39.173Z,10.50
2023-02-19T13:12:40.004Z,10.44
2023-02-19T13:13:40.870Z,10.44
2023-02-19T13:14:41.646Z,10.44
2023-02-19T13:15:42.502Z,10.44
2023-02-19T13:16:43.406Z,10.44